Time;durP1;ratioP1;P1;durP2;ratioP2;P2;SDS_P1;SDS_P2;PMS_P1;PMS_P2;Temp;Humidity;BMP_temperature;BMP_pressure;BME280_temperature;BME280_humidity;BME280_pressure;Samples;Min_cycle;Max_cycle;Signal;HPM_P1;HPM_P2
2021/09/14 00:02:17;;;;;;;905.35;807.33;;;;;;;;;;5011777;28;20033;-79
2021/09/14 00:04:43;;;;;;;903.47;805.70;;;;;;;;;;5025617;28;20040;-81
2021/09/14 00:07:09;;;;;;;897.80;800.10;;;;;;;;;;5008926;28;20481;-80
2021/09/14 00:09:35;;;;;;;904.15;806.25;;;;;;;;;;5022351;28;20397;-80
2021/09/14 00:12:01;;;;;;;905.47;807.50;;;;;;;;;;5016970;28;20029;-81
2021/09/14 00:14:27;;;;;;;910.10;812.03;;;;;;;;;;5000263;28;20033;-80
2021/09/14 00:16:53;;;;;;;906.90;809.03;;;;;;;;;;5010012;28;20029;-80
2021/09/14 00:19:19;;;;;;;900.72;803.22;;;;;;;;;;5026228;28;20496;-80
2021/09/14 00:21:45;;;;;;;901.45;803.72;;;;;;;;;;5028278;28;20025;-80
2021/09/14 00:24:11;;;;;;;906.40;808.65;;;;;;;;;;5026241;28;20377;-80
2021/09/14 00:26:37;;;;;;;898.85;801.45;;;;;;;;;;5011553;28;20033;-80
2021/09/14 00:29:03;;;;;;;912.08;814.03;;;;;;;;;;5022298;28;20462;-80
2021/09/14 00:31:29;;;;;;;911.67;813.40;;;;;;;;;;4997663;28;20386;-80
2021/09/14 00:33:56;;;;;;;905.83;807.80;;;;;;;;;;5011345;28;20033;-79
2021/09/14 00:36:22;;;;;;;889.08;791.90;;;;;;;;;;5010108;28;20021;-80
2021/09/14 00:38:48;;;;;;;890.10;792.70;;;;;;;;;;5004937;28;20052;-79
2021/09/14 00:41:14;;;;;;;885.00;787.85;;;;;;;;;;5013195;28;20022;-80
2021/09/14 00:43:40;;;;;;;891.38;793.78;;;;;;;;;;5003192;28;20029;-81
2021/09/14 00:46:06;;;;;;;898.67;800.80;;;;;;;;;;5027973;28;20052;-80
2021/09/14 00:48:32;;;;;;;893.38;795.88;;;;;;;;;;5025854;28;20437;-80
2021/09/14 00:50:58;;;;;;;891.50;794.03;;;;;;;;;;5012468;28;20033;-80
2021/09/14 00:53:26;;;;;;;892.33;794.60;;;;;;;;;;5018879;28;20021;-80
2021/09/14 00:55:52;;;;;;;897.90;799.90;;;;;;;;;;5015175;28;20083;-79
2021/09/14 00:58:18;;;;;;;891.08;793.47;;;;;;;;;;5008979;28;20041;-78
2021/09/14 01:00:44;;;;;;;899.30;801.63;;;;;;;;;;5012326;28;20037;-79
2021/09/14 01:03:10;;;;;;;895.88;797.97;;;;;;;;;;5027533;28;20021;-80
2021/09/14 01:05:36;;;;;;;883.60;786.17;;;;;;;;;;5029858;28;20277;-80
2021/09/14 01:08:02;;;;;;;886.33;789.03;;;;;;;;;;5026529;28;20087;-80
2021/09/14 01:10:29;;;;;;;893.30;795.63;;;;;;;;;;5016161;28;20500;-81
2021/09/14 01:12:56;;;;;;;890.65;793.00;;;;;;;;;;5026004;28;20083;-80
2021/09/14 01:15:24;;;;;;;881.15;783.75;;;;;;;;;;5021739;28;20044;-80
2021/09/14 01:17:50;;;;;;;878.25;779.80;;;;;;;;;;5027438;28;20014;-79
2021/09/14 01:20:16;;;;;;;884.83;787.17;;;;;;;;;;5020823;28;20428;-79
2021/09/14 01:22:42;;;;;;;869.85;769.65;;;;;;;;;;5020249;28;20033;-79
2021/09/14 01:25:19;;;;;;;882.85;785.35;;;;;;;;;;5014487;28;20025;-79
2021/09/14 01:27:45;;;;;;;875.22;775.88;;;;;;;;;;5027327;28;20056;-79
2021/09/14 01:30:13;;;;;;;877.50;777.65;;;;;;;;;;5021854;28;20488;-78
2021/09/14 01:32:40;;;;;;;876.28;775.95;;;;;;;;;;5008856;28;20026;-79
2021/09/14 01:35:06;;;;;;;873.85;775.10;;;;;;;;;;5011595;28;20040;-79
2021/09/14 01:37:32;;;;;;;878.95;781.42;;;;;;;;;;5015237;28;20033;-79
2021/09/14 01:39:58;;;;;;;889.05;791.47;;;;;;;;;;5027408;28;20026;-79
2021/09/14 01:42:24;;;;;;;880.03;782.10;;;;;;;;;;5009725;28;20363;-79
2021/09/14 01:44:50;;;;;;;877.33;779.67;;;;;;;;;;5017335;28;20489;-78
2021/09/14 01:47:16;;;;;;;880.90;782.65;;;;;;;;;;5028288;28;20029;-78
2021/09/14 01:49:42;;;;;;;877.47;778.88;;;;;;;;;;5011151;28;20029;-79
2021/09/14 01:52:08;;;;;;;875.83;776.72;;;;;;;;;;5005135;28;20037;-79
2021/09/14 01:54:34;;;;;;;874.97;774.97;;;;;;;;;;5028297;28;20021;-81
2021/09/14 01:57:00;;;;;;;882.33;784.45;;;;;;;;;;5024960;28;20029;-79
2021/09/14 01:59:26;;;;;;;876.50;777.80;;;;;;;;;;5005753;28;20037;-78
2021/09/14 02:02:34;;;;;;;876.97;778.38;;;;;;;;;;5022825;28;20025;-79
2021/09/14 02:24:07;;;;;;;873.60;762.30;;;;;;;;;;5021271;28;20040;-78
2021/09/14 02:58:45;;;;;;;869.72;758.97;;;;;;;;;;5018700;28;20029;-77
2021/09/14 03:01:13;;;;;;;874.83;767.72;;;;;;;;;;5025501;28;20386;-78
2021/09/14 03:03:41;;;;;;;869.88;757.20;;;;;;;;;;5013707;28;20029;-78
2021/09/14 03:06:08;;;;;;;869.10;749.47;;;;;;;;;;5026578;28;20017;-79
2021/09/14 03:08:35;;;;;;;872.33;762.17;;;;;;;;;;5003258;28;20061;-78
2021/09/14 03:11:08;;;;;;;873.58;766.65;;;;;;;;;;5009137;28;20504;-79
2021/09/14 03:13:35;;;;;;;870.88;759.47;;;;;;;;;;5026473;28;20033;-78
2021/09/14 03:16:01;;;;;;;871.58;757.78;;;;;;;;;;5018264;28;20370;-78
2021/09/14 03:18:27;;;;;;;869.58;756.63;;;;;;;;;;5004513;28;20022;-79
2021/09/14 03:20:53;;;;;;;872.88;764.10;;;;;;;;;;5026184;28;20026;-77
2021/09/14 03:23:19;;;;;;;871.65;755.63;;;;;;;;;;5010838;28;20060;-79
2021/09/14 03:25:45;;;;;;;878.50;762.33;;;;;;;;;;5008938;28;20132;-79
2021/09/14 03:28:11;;;;;;;873.80;765.42;;;;;;;;;;5025538;28;20024;-79
2021/09/14 03:30:37;;;;;;;874.05;759.83;;;;;;;;;;5011044;28;20297;-79
2021/09/14 03:33:04;;;;;;;871.08;758.55;;;;;;;;;;5010794;28;20103;-78
2021/09/14 03:35:30;;;;;;;870.42;755.67;;;;;;;;;;5025741;28;20052;-79
2021/09/14 03:37:56;;;;;;;872.33;760.70;;;;;;;;;;5007806;28;20025;-78
2021/09/14 03:40:22;;;;;;;875.50;763.92;;;;;;;;;;5015316;28;20423;-78
2021/09/14 03:42:48;;;;;;;872.97;756.97;;;;;;;;;;5008484;28;20535;-78
2021/09/14 03:45:14;;;;;;;873.85;761.22;;;;;;;;;;5025499;28;20339;-78
2021/09/14 03:47:40;;;;;;;871.67;751.92;;;;;;;;;;5013782;28;20378;-78
2021/09/14 03:50:06;;;;;;;874.40;759.78;;;;;;;;;;5004739;28;20036;-78
2021/09/14 03:52:32;;;;;;;871.72;759.72;;;;;;;;;;5012336;28;20060;-79
2021/09/14 03:54:58;;;;;;;870.90;752.92;;;;;;;;;;5028421;28;20026;-78
2021/09/14 03:57:24;;;;;;;869.55;748.47;;;;;;;;;;5011484;28;20443;-78
2021/09/14 03:59:50;;;;;;;870.90;748.38;;;;;;;;;;5017591;28;20048;-78
2021/09/14 04:09:53;;;;;;;873.38;752.58;;;;;;;;;;5030457;28;20044;-78
2021/09/14 04:12:19;;;;;;;872.72;753.58;;;;;;;;;;5011672;28;20033;-78
2021/09/14 04:14:45;;;;;;;881.53;763.95;;;;;;;;;;5011864;28;20460;-79
2021/09/14 04:17:11;;;;;;;879.88;761.42;;;;;;;;;;5015505;28;20121;-77
2021/09/14 04:19:37;;;;;;;879.50;759.70;;;;;;;;;;5014128;28;20022;-77
2021/09/14 04:22:03;;;;;;;874.50;752.13;;;;;;;;;;5014043;28;20056;-78
2021/09/14 04:24:29;;;;;;;875.70;757.17;;;;;;;;;;5018083;28;20032;-77
2021/09/14 04:26:55;;;;;;;879.47;760.53;;;;;;;;;;5016387;28;20033;-79
2021/09/14 04:29:21;;;;;;;877.60;757.80;;;;;;;;;;5004299;28;20033;-78
2021/09/14 04:31:47;;;;;;;878.92;761.65;;;;;;;;;;5024793;28;20466;-78
2021/09/14 04:34:13;;;;;;;875.78;753.33;;;;;;;;;;5022106;28;20051;-78
2021/09/14 04:36:39;;;;;;;874.03;749.88;;;;;;;;;;5025215;28;20345;-79
2021/09/14 04:39:05;;;;;;;877.75;757.13;;;;;;;;;;5027906;28;20443;-79
2021/09/14 04:41:31;;;;;;;878.55;757.08;;;;;;;;;;5014275;28;20386;-77
2021/09/14 04:43:57;;;;;;;883.08;766.17;;;;;;;;;;5012940;28;20120;-78
2021/09/14 04:46:23;;;;;;;882.28;772.45;;;;;;;;;;5010600;28;20414;-78
2021/09/14 04:48:49;;;;;;;880.58;764.75;;;;;;;;;;5029184;28;20226;-78
2021/09/14 04:51:15;;;;;;;881.83;763.88;;;;;;;;;;5007342;28;20029;-78
2021/09/14 04:53:41;;;;;;;879.55;756.17;;;;;;;;;;5014557;28;20041;-79
2021/09/14 04:56:07;;;;;;;881.78;760.78;;;;;;;;;;5027632;28;20029;-78
2021/09/14 04:58:36;;;;;;;880.25;758.58;;;;;;;;;;5020354;28;20354;-78
2021/09/14 05:01:02;;;;;;;879.17;756.53;;;;;;;;;;5027593;28;20100;-78
2021/09/14 05:03:28;;;;;;;879.67;761.22;;;;;;;;;;5011589;28;20109;-78
2021/09/14 05:05:55;;;;;;;881.83;762.55;;;;;;;;;;5028641;28;20586;-79
2021/09/14 05:08:20;;;;;;;880.60;766.47;;;;;;;;;;5027198;28;20044;-79
2021/09/14 05:10:46;;;;;;;878.28;758.03;;;;;;;;;;5009538;28;20444;-79
2021/09/14 05:13:13;;;;;;;877.13;756.72;;;;;;;;;;5016444;28;20026;-78
2021/09/14 05:15:39;;;;;;;880.10;762.67;;;;;;;;;;5013205;28;20025;-78
2021/09/14 05:18:11;;;;;;;878.00;761.67;;;;;;;;;;5028799;28;20022;-79
2021/09/14 05:20:39;;;;;;;878.03;759.85;;;;;;;;;;5011026;28;20504;-78
2021/09/14 05:23:15;;;;;;;880.30;762.13;;;;;;;;;;5031854;28;20079;-78
2021/09/14 05:25:42;;;;;;;878.95;760.17;;;;;;;;;;5027437;28;20722;-79
2021/09/14 05:28:11;;;;;;;880.88;767.45;;;;;;;;;;5028586;28;20104;-78
2021/09/14 05:30:37;;;;;;;881.90;770.28;;;;;;;;;;5026637;28;20026;-78
2021/09/14 05:33:04;;;;;;;877.95;760.17;;;;;;;;;;5024392;28;20064;-78
2021/09/14 05:35:34;;;;;;;882.92;771.40;;;;;;;;;;5028279;28;20327;-78
2021/09/14 05:38:00;;;;;;;880.72;771.00;;;;;;;;;;5027017;28;20048;-78
2021/09/14 05:40:26;;;;;;;883.33;775.35;;;;;;;;;;5027637;28;20025;-78
2021/09/14 05:42:52;;;;;;;881.08;773.10;;;;;;;;;;5015322;28;20033;-78
2021/09/14 05:45:17;;;;;;;891.00;780.80;;;;;;;;;;5005246;28;20041;-78
2021/09/14 05:47:43;;;;;;;884.30;782.63;;;;;;;;;;5026315;28;20033;-78
2021/09/14 05:50:11;;;;;;;881.65;773.50;;;;;;;;;;5001943;28;20029;-78
2021/09/14 05:52:37;;;;;;;880.90;773.03;;;;;;;;;;5025142;28;20424;-78
2021/09/14 05:55:03;;;;;;;878.47;767.30;;;;;;;;;;5017754;28;20031;-78
2021/09/14 05:57:29;;;;;;;883.60;782.53;;;;;;;;;;5026200;28;20535;-78
2021/09/14 05:59:55;;;;;;;882.55;777.00;;;;;;;;;;5026805;28;20021;-78
2021/09/14 06:02:21;;;;;;;879.58;774.90;;;;;;;;;;5022558;28;20478;-77
2021/09/14 06:04:47;;;;;;;883.22;780.33;;;;;;;;;;5035925;28;20421;-78
2021/09/14 06:07:13;;;;;;;885.92;778.63;;;;;;;;;;5025126;28;20041;-78
2021/09/14 06:09:39;;;;;;;883.47;779.88;;;;;;;;;;5010878;28;20126;-78
2021/09/14 06:12:06;;;;;;;881.90;779.83;;;;;;;;;;5025732;28;20049;-78
2021/09/14 06:14:32;;;;;;;883.47;783.55;;;;;;;;;;5025369;28;20027;-79
2021/09/14 06:16:58;;;;;;;881.00;780.78;;;;;;;;;;5022954;28;20034;-78
2021/09/14 06:19:24;;;;;;;881.83;780.15;;;;;;;;;;5012907;28;20030;-77
2021/09/14 06:21:50;;;;;;;887.85;789.40;;;;;;;;;;5025135;28;20029;-78
2021/09/14 06:24:16;;;;;;;894.95;796.58;;;;;;;;;;5011855;28;20026;-78
2021/09/14 06:26:42;;;;;;;883.78;785.83;;;;;;;;;;5009491;28;20242;-78
2021/09/14 06:29:08;;;;;;;898.08;799.47;;;;;;;;;;5011214;28;20029;-78
2021/09/14 06:31:34;;;;;;;905.38;806.58;;;;;;;;;;5016110;28;20029;-78
2021/09/14 06:34:00;;;;;;;897.10;798.72;;;;;;;;;;5026342;28;20025;-78
2021/09/14 06:36:26;;;;;;;903.45;805.05;;;;;;;;;;5017393;28;20444;-78
2021/09/14 06:38:52;;;;;;;901.10;802.50;;;;;;;;;;5029049;28;20030;-78
2021/09/14 06:41:18;;;;;;;913.63;814.78;;;;;;;;;;5019083;28;20120;-77
2021/09/14 06:43:44;;;;;;;910.60;811.65;;;;;;;;;;5014147;28;20029;-78
2021/09/14 06:46:10;;;;;;;919.08;819.90;;;;;;;;;;5018873;28;20049;-79
2021/09/14 06:48:36;;;;;;;914.40;815.83;;;;;;;;;;5009167;28;20121;-79
2021/09/14 06:51:01;;;;;;;919.83;820.83;;;;;;;;;;5026874;28;20373;-78
2021/09/14 06:53:29;;;;;;;922.63;823.53;;;;;;;;;;5023352;28;20021;-78
2021/09/14 06:55:55;;;;;;;922.63;823.67;;;;;;;;;;5005056;28;20031;-77
2021/09/14 06:58:21;;;;;;;927.78;828.78;;;;;;;;;;5012201;28;20551;-81
2021/09/14 07:00:47;;;;;;;927.63;828.30;;;;;;;;;;5017398;28;20244;-78
2021/09/14 07:03:13;;;;;;;930.50;831.28;;;;;;;;;;5004790;28;20470;-78
2021/09/14 07:05:40;;;;;;;930.53;830.50;;;;;;;;;;5017004;28;20060;-79
2021/09/14 07:08:06;;;;;;;926.40;827.33;;;;;;;;;;5012641;28;20075;-78
2021/09/14 07:10:32;;;;;;;934.80;834.97;;;;;;;;;;5021157;28;20025;-79
2021/09/14 07:12:58;;;;;;;932.10;832.60;;;;;;;;;;5007134;28;21546;-78
2021/09/14 07:15:24;;;;;;;935.60;836.05;;;;;;;;;;5026056;28;20033;-79
2021/09/14 07:17:50;;;;;;;931.38;832.17;;;;;;;;;;5015599;28;20105;-79
2021/09/14 07:20:16;;;;;;;945.70;845.90;;;;;;;;;;4997972;28;20029;-79
2021/09/14 07:22:43;;;;;;;944.53;845.00;;;;;;;;;;5024150;28;20048;-78
2021/09/14 07:25:09;;;;;;;945.67;845.83;;;;;;;;;;5024937;28;20148;-78
2021/09/14 07:27:35;;;;;;;944.17;844.50;;;;;;;;;;5031471;28;20591;-78
2021/09/14 07:30:01;;;;;;;950.97;851.20;;;;;;;;;;5027513;28;20496;-79
2021/09/14 07:32:27;;;;;;;946.60;847.20;;;;;;;;;;5024265;28;20029;-78
2021/09/14 07:34:53;;;;;;;947.80;848.20;;;;;;;;;;5024854;28;20021;-79
2021/09/14 07:37:19;;;;;;;954.13;854.17;;;;;;;;;;5022487;28;20091;-79
2021/09/14 07:39:45;;;;;;;956.47;856.78;;;;;;;;;;5028305;28;20068;-78
2021/09/14 07:42:11;;;;;;;944.20;845.08;;;;;;;;;;5004557;28;20536;-79
2021/09/14 07:44:38;;;;;;;961.05;861.05;;;;;;;;;;5003030;28;20026;-79
2021/09/14 07:47:04;;;;;;;955.55;855.85;;;;;;;;;;5004390;28;20033;-79
2021/09/14 07:49:30;;;;;;;954.83;854.72;;;;;;;;;;5005774;28;20130;-78
2021/09/14 07:51:56;;;;;;;961.85;862.05;;;;;;;;;;5029887;28;20036;-80
2021/09/14 07:54:22;;;;;;;959.70;859.85;;;;;;;;;;5013238;28;20029;-79
2021/09/14 07:56:48;;;;;;;962.35;862.50;;;;;;;;;;5020927;28;20033;-79
2021/09/14 07:59:14;;;;;;;961.72;861.65;;;;;;;;;;5008473;28;20026;-79
2021/09/14 08:01:40;;;;;;;961.88;861.88;;;;;;;;;;5023054;28;20353;-79
2021/09/14 08:04:06;;;;;;;967.53;867.55;;;;;;;;;;5018480;28;20029;-80
2021/09/14 08:06:34;;;;;;;964.13;864.13;;;;;;;;;;5005268;28;20032;-78
2021/09/14 08:09:00;;;;;;;963.47;863.47;;;;;;;;;;5012066;28;20558;-79
2021/09/14 08:11:26;;;;;;;970.50;869.92;;;;;;;;;;5011372;28;20071;-79
2021/09/14 08:13:52;;;;;;;960.92;860.95;;;;;;;;;;5014760;28;20081;-78
2021/09/14 08:16:21;;;;;;;967.63;867.63;;;;;;;;;;5023712;28;20057;-78
2021/09/14 08:18:47;;;;;;;969.72;869.50;;;;;;;;;;5025191;28;20037;-78
2021/09/14 08:21:13;;;;;;;970.28;870.13;;;;;;;;;;5022955;28;20468;-79
2021/09/14 08:23:40;;;;;;;972.25;871.97;;;;;;;;;;5025338;28;20037;-79
2021/09/14 08:26:06;;;;;;;970.53;870.38;;;;;;;;;;5013102;28;20091;-79
2021/09/14 08:28:32;;;;;;;987.55;886.90;;;;;;;;;;5030454;28;20025;-79
2021/09/14 08:30:58;;;;;;;994.13;893.28;;;;;;;;;;5011344;28;20473;-79
2021/09/14 08:33:24;;;;;;;1000.72;899.58;;;;;;;;;;5025950;28;20039;-78
2021/09/14 08:35:50;;;;;;;1012.53;911.03;;;;;;;;;;5018526;28;20048;-80
2021/09/14 08:38:16;;;;;;;1023.40;921.60;;;;;;;;;;5025735;28;20323;-80
2021/09/14 08:40:42;;;;;;;1044.05;941.22;;;;;;;;;;5005593;28;20514;-81
2021/09/14 08:43:12;;;;;;;1045.97;943.17;;;;;;;;;;5009211;28;20436;-80
2021/09/14 08:45:38;;;;;;;1033.90;932.08;;;;;;;;;;5006521;28;20052;-79
2021/09/14 08:48:05;;;;;;;1043.85;941.45;;;;;;;;;;5015155;28;20021;-78
2021/09/14 08:50:31;;;;;;;1054.28;951.25;;;;;;;;;;5007862;28;20029;-79
2021/09/14 08:52:57;;;;;;;1063.32;959.92;;;;;;;;;;5000616;28;20022;-79
2021/09/14 08:55:23;;;;;;;1059.03;955.83;;;;;;;;;;5022098;28;20509;-78
2021/09/14 08:57:50;;;;;;;1051.00;948.30;;;;;;;;;;5028164;28;20125;-80
2021/09/14 09:00:16;;;;;;;1068.32;964.53;;;;;;;;;;5025113;28;20021;-79
2021/09/14 09:02:53;;;;;;;1066.00;962.83;;;;;;;;;;5008920;28;20409;-77
2021/09/14 09:05:28;;;;;;;1065.18;961.92;;;;;;;;;;5010842;28;20033;-78
2021/09/14 09:07:54;;;;;;;1069.40;966.03;;;;;;;;;;5022614;28;20088;-79
2021/09/14 09:10:21;;;;;;;1071.38;968.15;;;;;;;;;;5000113;28;20608;-78
2021/09/14 09:12:48;;;;;;;1084.38;980.38;;;;;;;;;;5023289;28;20044;-81
2021/09/14 09:15:22;;;;;;;1081.88;977.75;;;;;;;;;;5003527;28;20028;-78
2021/09/14 09:17:58;;;;;;;1090.28;986.05;;;;;;;;;;5026731;28;20524;-79
2021/09/14 09:20:26;;;;;;;1091.63;987.08;;;;;;;;;;5008599;28;20563;-75
2021/09/14 09:23:02;;;;;;;1101.50;996.15;;;;;;;;;;5014367;28;20112;-79
2021/09/14 09:25:28;;;;;;;1091.32;986.80;;;;;;;;;;5021301;28;20479;-81
2021/09/14 09:28:08;;;;;;;1097.32;992.55;;;;;;;;;;5022622;28;20401;-79
2021/09/14 09:30:38;;;;;;;1103.13;996.72;;;;;;;;;;5023315;28;20064;-78
2021/09/14 09:33:07;;;;;;;1094.95;989.97;;;;;;;;;;5004247;28;20408;-77
2021/09/14 09:35:36;;;;;;;1093.35;988.97;;;;;;;;;;5023511;28;20052;-78
2021/09/14 09:38:03;;;;;;;1100.18;995.15;;;;;;;;;;5004113;28;20029;-78
2021/09/14 09:40:35;;;;;;;1099.55;994.50;;;;;;;;;;5021893;28;20429;-77
2021/09/14 09:43:07;;;;;;;1110.68;999.90;;;;;;;;;;5025601;28;20079;-78
2021/09/14 09:45:34;;;;;;;1120.85;999.90;;;;;;;;;;5025783;28;20034;-78
2021/09/14 09:48:01;;;;;;;1131.63;999.90;;;;;;;;;;5012634;28;20113;-78
2021/09/14 09:50:28;;;;;;;1117.93;999.90;;;;;;;;;;5011949;28;20021;-79
2021/09/14 09:52:54;;;;;;;1113.90;999.90;;;;;;;;;;5012008;28;20124;-78
2021/09/14 09:55:20;;;;;;;1113.93;999.90;;;;;;;;;;5020068;28;20021;-78
2021/09/14 09:57:46;;;;;;;1119.90;999.90;;;;;;;;;;5020986;28;20026;-79
2021/09/14 10:00:13;;;;;;;1116.25;999.90;;;;;;;;;;5018052;28;20037;-79
2021/09/14 10:02:42;;;;;;;1121.72;999.90;;;;;;;;;;5017958;28;20034;-80
2021/09/14 10:05:09;;;;;;;1122.10;999.90;;;;;;;;;;5010685;28;20033;-79
2021/09/14 10:07:35;;;;;;;1116.25;999.90;;;;;;;;;;4999496;28;20521;-78
2021/09/14 10:10:03;;;;;;;1119.70;999.90;;;;;;;;;;5006147;28;20040;-78
2021/09/14 10:12:36;;;;;;;1111.55;999.90;;;;;;;;;;5122534;27;20394;-78
2021/09/14 10:15:12;;;;;;;1116.70;999.90;;;;;;;;;;5073133;28;20074;-78
2021/09/14 10:17:51;;;;;;;1124.63;999.90;;;;;;;;;;5062654;28;20031;-80
2021/09/14 10:20:19;;;;;;;1117.37;999.90;;;;;;;;;;5074881;28;20066;-80
2021/09/14 10:22:45;;;;;;;1123.03;999.90;;;;;;;;;;5065802;28;20300;-77
2021/09/14 10:25:20;;;;;;;1124.13;999.90;;;;;;;;;;5090606;28;20016;-81
2021/09/14 10:27:47;;;;;;;1122.93;999.90;;;;;;;;;;5084668;28;20020;-80
2021/09/14 10:30:14;;;;;;;1130.28;999.90;;;;;;;;;;5083594;28;20496;-80
2021/09/14 10:32:41;;;;;;;1125.85;999.90;;;;;;;;;;5063087;28;20495;-79
2021/09/14 10:35:07;;;;;;;1130.63;999.90;;;;;;;;;;5084330;28;20020;-79
2021/09/14 10:37:36;;;;;;;1130.63;999.90;;;;;;;;;;5083708;28;20461;-79
2021/09/14 10:40:08;;;;;;;1134.70;999.90;;;;;;;;;;5084314;28;20464;-79
2021/09/14 10:42:35;;;;;;;1136.05;999.90;;;;;;;;;;5080771;28;20040;-80
2021/09/14 10:45:07;;;;;;;1138.85;999.90;;;;;;;;;;5078831;28;20020;-78
2021/09/14 10:47:36;;;;;;;1140.70;999.90;;;;;;;;;;5065297;28;20024;-79
2021/09/14 10:50:04;;;;;;;1138.45;999.90;;;;;;;;;;5081775;28;20252;-79
2021/09/14 10:52:41;;;;;;;1137.82;999.90;;;;;;;;;;5085132;28;20035;-80
2021/09/14 10:55:11;;;;;;;1144.72;999.90;;;;;;;;;;5059199;28;20523;-80
2021/09/14 10:57:40;;;;;;;1140.32;999.90;;;;;;;;;;5059908;28;20081;-80
2021/09/14 11:00:26;;;;;;;1148.13;999.90;;;;;;;;;;5058913;28;20032;-80
2021/09/14 11:02:57;;;;;;;1150.93;999.90;;;;;;;;;;5058229;28;20504;-79
2021/09/14 11:05:26;;;;;;;1152.55;999.90;;;;;;;;;;5083395;28;20507;-79
2021/09/14 11:07:57;;;;;;;1153.65;999.90;;;;;;;;;;5054773;28;20025;-78
2021/09/14 11:10:23;;;;;;;1150.93;999.90;;;;;;;;;;5079496;28;20496;-79
2021/09/14 11:12:49;;;;;;;1137.43;999.90;;;;;;;;;;5078158;28;20064;-79
2021/09/14 11:15:15;;;;;;;1132.40;999.90;;;;;;;;;;5064325;28;20020;-79
2021/09/14 11:17:41;;;;;;;1137.10;999.90;;;;;;;;;;5055954;28;20068;-78
2021/09/14 11:20:10;;;;;;;1138.72;999.90;;;;;;;;;;5064025;28;20024;-78
2021/09/14 11:22:37;;;;;;;1134.30;999.90;;;;;;;;;;5068826;28;20026;-78
2021/09/14 11:25:05;;;;;;;1139.53;999.90;;;;;;;;;;5040453;28;20033;-79
2021/09/14 11:27:31;;;;;;;1152.18;999.90;;;;;;;;;;5049951;28;20542;-78
2021/09/14 11:29:58;;;;;;;1147.70;999.90;;;;;;;;;;5044575;28;20029;-77
2021/09/14 11:32:25;;;;;;;1141.97;999.90;;;;;;;;;;5048913;28;20362;-78
2021/09/14 11:34:52;;;;;;;1132.25;999.90;;;;;;;;;;5058866;28;20484;-78
2021/09/14 11:37:25;;;;;;;1138.20;999.90;;;;;;;;;;5042888;28;20073;-80
2021/09/14 11:39:51;;;;;;;1138.55;999.90;;;;;;;;;;5048771;28;20085;-79
2021/09/14 11:42:17;;;;;;;1147.03;999.90;;;;;;;;;;5043692;28;20032;-77
2021/09/14 11:44:43;;;;;;;1145.88;999.90;;;;;;;;;;5050328;28;20032;-80
2021/09/14 11:47:09;;;;;;;1152.28;999.90;;;;;;;;;;5038868;28;20074;-79
2021/09/14 11:49:36;;;;;;;1161.03;999.90;;;;;;;;;;5038273;28;20093;-80
2021/09/14 11:52:04;;;;;;;1166.88;999.90;;;;;;;;;;5066318;28;20036;-79
2021/09/14 11:54:37;;;;;;;1172.05;999.90;;;;;;;;;;5045168;28;20032;-78
2021/09/14 11:57:03;;;;;;;1184.53;999.90;;;;;;;;;;5046282;28;20380;-79
2021/09/14 11:59:37;;;;;;;1214.90;999.90;;;;;;;;;;5035324;28;20325;-80
2021/09/14 12:02:05;;;;;;;1212.65;999.90;;;;;;;;;;5062142;28;20036;-79
2021/09/14 12:04:31;;;;;;;1221.10;999.90;;;;;;;;;;5068324;28;20044;-79
2021/09/14 12:07:00;;;;;;;1214.82;999.90;;;;;;;;;;5066430;28;20037;-78
2021/09/14 12:09:29;;;;;;;1236.78;999.90;;;;;;;;;;5032058;28;20039;-79
2021/09/14 12:12:05;;;;;;;1247.85;999.90;;;;;;;;;;5032047;28;20033;-76
2021/09/14 12:14:31;;;;;;;1272.10;999.90;;;;;;;;;;5037294;28;20020;-78
2021/09/14 12:17:03;;;;;;;1277.88;999.90;;;;;;;;;;5044306;28;20021;-79
2021/09/14 12:19:30;;;;;;;1270.50;999.90;;;;;;;;;;5046039;28;20025;-77
2021/09/14 12:21:57;;;;;;;1255.57;999.90;;;;;;;;;;5062295;28;20040;-76
2021/09/14 12:24:23;;;;;;;1249.88;999.90;;;;;;;;;;5033410;28;20040;-78
2021/09/14 12:26:55;;;;;;;1240.30;999.90;;;;;;;;;;5041470;28;20486;-78
2021/09/14 12:29:22;;;;;;;1232.55;999.90;;;;;;;;;;5037842;28;20032;-75
2021/09/14 12:31:48;;;;;;;1233.85;999.90;;;;;;;;;;5026867;28;20487;-76
2021/09/14 12:34:16;;;;;;;1226.65;999.90;;;;;;;;;;5065750;28;20108;-75
2021/09/14 12:36:43;;;;;;;1221.38;999.90;;;;;;;;;;5041640;28;20048;-76
2021/09/14 12:39:09;;;;;;;1215.57;999.90;;;;;;;;;;5040889;28;20020;-77
2021/09/14 12:41:35;;;;;;;1217.03;999.90;;;;;;;;;;5039339;28;20111;-77
2021/09/14 12:44:01;;;;;;;1205.32;999.90;;;;;;;;;;5048436;28;20043;-78
2021/09/14 12:46:27;;;;;;;1209.28;999.90;;;;;;;;;;5037875;28;20041;-79
2021/09/14 12:48:53;;;;;;;1201.60;999.90;;;;;;;;;;5049120;28;20021;-79
2021/09/14 12:51:19;;;;;;;1203.72;999.90;;;;;;;;;;5029927;28;20639;-79
2021/09/14 12:53:45;;;;;;;1210.82;999.90;;;;;;;;;;5036136;28;20039;-77
2021/09/14 12:56:11;;;;;;;1206.68;999.90;;;;;;;;;;5059827;28;20024;-78
2021/09/14 12:58:37;;;;;;;1198.65;999.90;;;;;;;;;;5051640;28;20025;-79
2021/09/14 13:01:04;;;;;;;1183.53;999.90;;;;;;;;;;5039356;28;20543;-78
2021/09/14 13:03:30;;;;;;;1194.38;999.90;;;;;;;;;;5047896;28;20506;-78
2021/09/14 13:05:56;;;;;;;1195.28;999.90;;;;;;;;;;5042785;28;20115;-79
2021/09/14 13:08:22;;;;;;;1190.93;999.90;;;;;;;;;;5060015;28;20056;-78
2021/09/14 13:10:48;;;;;;;1183.15;999.90;;;;;;;;;;5039026;28;20072;-78
2021/09/14 13:16:10;;;;;;;1186.13;999.90;;;;;;;;;;5044418;28;20554;-78
2021/09/14 13:18:40;;;;;;;1184.78;999.90;;;;;;;;;;5048107;28;20086;-79
2021/09/14 13:21:06;;;;;;;1184.25;999.90;;;;;;;;;;5042138;28;20119;-78
2021/09/14 13:23:33;;;;;;;1184.95;999.90;;;;;;;;;;5039752;28;20193;-79
2021/09/14 13:25:59;;;;;;;1187.53;999.90;;;;;;;;;;5057780;28;20035;-79
2021/09/14 13:28:25;;;;;;;1191.45;999.90;;;;;;;;;;5041508;28;20072;-79
2021/09/14 13:30:51;;;;;;;1186.22;999.90;;;;;;;;;;5038257;28;20036;-77
2021/09/14 13:33:17;;;;;;;1187.15;999.90;;;;;;;;;;5038368;28;20016;-77
2021/09/14 13:35:43;;;;;;;1185.10;999.90;;;;;;;;;;5048081;28;20025;-79
2021/09/14 13:38:09;;;;;;;1191.25;999.90;;;;;;;;;;5047292;28;20545;-79
2021/09/14 13:40:36;;;;;;;1186.82;999.90;;;;;;;;;;5024375;28;20082;-78
2021/09/14 13:43:02;;;;;;;1186.30;999.90;;;;;;;;;;5064363;28;20198;-78
2021/09/14 13:48:16;;;;;;;1186.45;999.90;;;;;;;;;;5047718;28;20154;-78
2021/09/14 13:50:42;;;;;;;1188.25;999.90;;;;;;;;;;5054384;28;20094;-78
2021/09/14 13:53:08;;;;;;;1190.40;999.90;;;;;;;;;;5057789;28;20472;-79
2021/09/14 13:55:34;;;;;;;1194.53;999.90;;;;;;;;;;5041744;28;20078;-79
2021/09/14 13:58:00;;;;;;;1187.15;999.90;;;;;;;;;;5033052;28;20025;-79
2021/09/14 14:00:26;;;;;;;1186.75;999.90;;;;;;;;;;5056008;28;20025;-79
2021/09/14 14:02:52;;;;;;;1185.20;999.90;;;;;;;;;;5029045;28;20492;-78
2021/09/14 14:05:18;;;;;;;1192.10;999.90;;;;;;;;;;5036539;28;20413;-80
2021/09/14 14:07:44;;;;;;;1187.88;999.90;;;;;;;;;;5034893;28;20028;-79
2021/09/14 14:10:10;;;;;;;1191.47;999.90;;;;;;;;;;5044498;28;20101;-79
2021/09/14 14:12:36;;;;;;;1194.47;999.90;;;;;;;;;;5035334;28;20127;-79
2021/09/14 14:15:02;;;;;;;1193.05;999.90;;;;;;;;;;5055055;28;20023;-78
2021/09/14 14:17:30;;;;;;;1194.63;999.90;;;;;;;;;;5044559;28;20033;-78
2021/09/14 14:19:56;;;;;;;1185.13;999.90;;;;;;;;;;5036938;28;20206;-77
2021/09/14 14:22:22;;;;;;;1188.75;999.90;;;;;;;;;;5046562;28;20036;-78
2021/09/14 14:24:48;;;;;;;1188.43;999.90;;;;;;;;;;5047917;28;20119;-80
2021/09/14 14:27:13;;;;;;;1183.07;999.90;;;;;;;;;;5031390;28;20020;-78
2021/09/14 14:29:40;;;;;;;1187.63;999.90;;;;;;;;;;5035560;28;20485;-78
2021/09/14 14:32:06;;;;;;;1190.60;999.90;;;;;;;;;;5030680;28;20025;-77
2021/09/14 14:34:32;;;;;;;1190.78;999.90;;;;;;;;;;5047560;28;20078;-78
2021/09/14 14:36:58;;;;;;;1189.68;999.90;;;;;;;;;;5047897;28;20300;-78
2021/09/14 14:39:24;;;;;;;1187.32;999.90;;;;;;;;;;5055779;28;20406;-77
2021/09/14 14:41:51;;;;;;;1185.85;999.90;;;;;;;;;;5036682;28;20384;-79
2021/09/14 14:44:17;;;;;;;1185.82;999.90;;;;;;;;;;5033077;28;20542;-80
2021/09/14 14:46:43;;;;;;;1183.45;999.90;;;;;;;;;;5035998;28;20032;-77
2021/09/14 14:49:09;;;;;;;1192.07;999.90;;;;;;;;;;5040634;28;20488;-78
2021/09/14 14:51:36;;;;;;;1180.95;999.90;;;;;;;;;;5031264;28;20708;-80